Time,TemperatureF,DewpointF,PressureIn,WindDirection,WindDirectionDegrees,WindSpeedMPH,WindSpeedGustMPH,Humidity,HourlyPrecipIn,Conditions,Clouds,dailyrainin,SolarRadiationWatts/m^2,SoftwareType,DateUTC
2013-09-08 00:02:00,-999.0,-99.9,-100.00,NNW,348,0.0,1.0,-999,-99.99,,,-99.99,0.000000,,2013-09-08 04:02:00,
2013-09-08 00:43:00,70.0,69.0,-100.00,NW,304,1.0,2.0,98,0.00,,,0.00,0.000000,,2013-09-08 04:43:00,
2013-09-08 00:54:00,70.0,69.0,-100.00,NW,304,1.0,2.0,98,0.00,,,0.00,0.000000,,2013-09-08 04:54:00,
2013-09-08 01:03:00,70.0,69.0,-100.00,NW,304,1.0,2.0,98,0.00,,,0.00,0.000000,,2013-09-08 05:03:00,
2013-09-08 01:23:00,69.0,69.0,-100.00,WNW,299,0.0,2.0,99,0.00,,,0.00,0.000000,,2013-09-08 05:23:00,
2013-09-08 01:34:00,69.0,69.0,-100.00,WNW,299,0.0,2.0,99,0.00,,,0.00,0.000000,,2013-09-08 05:34:00,
2013-09-08 01:43:00,69.0,69.0,-100.00,WNW,299,0.0,2.0,99,0.00,,,0.00,0.000000,,2013-09-08 05:43:00,
2013-09-08 01:52:00,69.0,69.0,-100.00,WNW,299,0.0,2.0,99,0.00,,,0.00,0.000000,,2013-09-08 05:52:00,
2013-09-08 02:03:00,69.0,69.0,-100.00,WNW,299,0.0,2.0,99,0.00,,,0.00,0.000000,,2013-09-08 06:03:00,
2013-09-08 02:22:00,68.0,68.0,-100.00,West,278,0.0,0.0,99,0.00,,,0.00,0.000000,,2013-09-08 06:22:00,
2013-09-08 02:33:00,68.0,68.0,-100.00,West,278,0.0,0.0,99,0.00,,,0.00,0.000000,,2013-09-08 06:33:00,
2013-09-08 02:42:00,68.0,68.0,-100.00,West,278,0.0,0.0,99,0.00,,,0.00,0.000000,,2013-09-08 06:42:00,
2013-09-08 02:53:00,68.0,68.0,-100.00,West,278,0.0,0.0,99,0.00,,,0.00,0.000000,,2013-09-08 06:53:00,
2013-09-08 03:02:00,68.0,68.0,-100.00,West,278,0.0,0.0,99,0.00,,,0.00,0.000000,,2013-09-08 07:02:00,
2013-09-08 03:42:00,67.0,67.0,-100.00,SW,218,0.0,0.0,99,0.00,,,0.00,0.000000,,2013-09-08 07:42:00,
2013-09-08 03:52:00,67.0,67.0,-100.00,SW,218,0.0,0.0,99,0.00,,,0.00,0.000000,,2013-09-08 07:52:00,
2013-09-08 04:02:00,67.0,67.0,-100.00,SW,218,0.0,0.0,99,0.00,,,0.00,0.000000,,2013-09-08 08:02:00,
2013-09-08 04:22:00,67.0,67.0,-100.00,NW,309,0.0,0.0,99,0.00,,,0.00,0.000000,,2013-09-08 08:22:00,
2013-09-08 04:32:00,67.0,67.0,-100.00,NW,309,0.0,0.0,99,0.00,,,0.00,0.000000,,2013-09-08 08:32:00,
2013-09-08 04:42:00,67.0,67.0,-100.00,NW,309,0.0,0.0,99,0.00,,,0.00,0.000000,,2013-09-08 08:42:00,
2013-09-08 04:52:00,67.0,67.0,-100.00,NW,309,0.0,0.0,99,0.00,,,0.00,0.000000,,2013-09-08 08:52:00,
2013-09-08 05:02:00,67.0,67.0,-100.00,NW,309,0.0,0.0,99,0.00,,,0.00,0.000000,,2013-09-08 09:02:00,
2013-09-08 05:43:00,66.0,66.0,-100.00,WSW,248,0.0,0.0,99,0.00,,,0.00,0.000000,,2013-09-08 09:43:00,
2013-09-08 05:54:00,66.0,66.0,-100.00,WSW,248,0.0,0.0,99,0.00,,,0.00,0.000000,,2013-09-08 09:54:00,
2013-09-08 06:03:00,66.0,66.0,-100.00,WSW,248,0.0,0.0,99,0.00,,,0.00,0.000000,,2013-09-08 10:03:00,
2013-09-08 06:43:00,65.0,65.0,-100.00,NW,308,0.0,0.0,99,0.00,,,0.00,0.000000,,2013-09-08 10:43:00,
2013-09-08 06:53:00,65.0,65.0,-100.00,NW,308,0.0,0.0,99,0.00,,,0.00,0.000000,,2013-09-08 10:53:00,
2013-09-08 07:02:00,65.0,65.0,-100.00,NW,308,0.0,0.0,99,0.00,,,0.00,0.000000,,2013-09-08 11:02:00,
2013-09-08 07:42:00,65.0,65.0,-100.00,West,275,0.0,0.0,99,0.00,,,0.00,0.000000,,2013-09-08 11:42:00,
2013-09-08 07:52:00,65.0,65.0,-100.00,West,275,0.0,0.0,99,0.00,,,0.00,0.000000,,2013-09-08 11:52:00,
2013-09-08 08:02:00,65.0,65.0,-100.00,West,275,0.0,0.0,99,0.00,,,0.00,0.000000,,2013-09-08 12:02:00,
2013-09-08 08:42:00,68.0,68.0,-100.00,North,351,0.0,0.0,99,0.00,,,0.00,40.000000,,2013-09-08 12:42:00,
2013-09-08 08:52:00,68.0,68.0,-100.00,North,351,0.0,0.0,99,0.00,,,0.00,40.000000,,2013-09-08 12:52:00,
2013-09-08 09:02:00,68.0,68.0,-100.00,North,351,0.0,0.0,99,0.00,,,0.00,40.000000,,2013-09-08 13:02:00,
2013-09-08 09:42:00,77.0,76.0,-100.00,NW,310,1.0,2.0,96,0.00,,,0.00,218.000000,,2013-09-08 13:42:00,
2013-09-08 09:52:00,77.0,76.0,-100.00,NW,310,1.0,2.0,96,0.00,,,0.00,218.000000,,2013-09-08 13:52:00,
2013-09-08 10:02:00,77.0,76.0,-100.00,NW,310,1.0,2.0,96,0.00,,,0.00,218.000000,,2013-09-08 14:02:00,
2013-09-08 10:42:00,83.0,76.0,-100.00,NW,318,2.0,5.0,79,0.00,,,0.00,445.000000,,2013-09-08 14:42:00,
2013-09-08 10:52:00,83.0,76.0,-100.00,NW,318,2.0,5.0,79,0.00,,,0.00,445.000000,,2013-09-08 14:52:00,
2013-09-08 11:02:00,83.0,76.0,-100.00,NW,318,2.0,5.0,79,0.00,,,0.00,445.000000,,2013-09-08 15:02:00,
2013-09-08 11:04:00,85.0,72.0,-100.00,South,169,3.0,6.0,66,0.00,,,0.00,668.000000,,2013-09-08 15:04:00,
2013-09-08 11:23:00,85.0,72.0,-100.00,South,169,3.0,6.0,66,0.00,,,0.00,668.000000,,2013-09-08 15:23:00,
2013-09-08 11:34:00,85.0,72.0,-100.00,South,169,3.0,6.0,66,0.00,,,0.00,668.000000,,2013-09-08 15:34:00,
2013-09-08 11:45:00,85.0,72.0,-100.00,South,169,3.0,6.0,66,0.00,,,0.00,668.000000,,2013-09-08 15:45:00,
2013-09-08 11:55:00,85.0,72.0,-100.00,South,169,3.0,6.0,66,0.00,,,0.00,668.000000,,2013-09-08 15:55:00,
2013-09-08 12:44:00,89.0,71.0,-100.00,WSW,247,3.0,7.0,56,0.00,,,0.00,820.000000,,2013-09-08 16:44:00,
2013-09-08 12:54:00,89.0,71.0,-100.00,WSW,247,3.0,7.0,56,0.00,,,0.00,820.000000,,2013-09-08 16:54:00,
2013-09-08 13:03:00,89.0,71.0,-100.00,WSW,247,3.0,7.0,56,0.00,,,0.00,820.000000,,2013-09-08 17:03:00,
2013-09-08 13:43:00,89.0,69.0,-100.00,WNW,301,3.0,6.0,52,0.00,,,0.00,766.000000,,2013-09-08 17:43:00,
2013-09-08 13:53:00,89.0,69.0,-100.00,WNW,301,3.0,6.0,52,0.00,,,0.00,766.000000,,2013-09-08 17:53:00,
2013-09-08 14:02:00,89.0,69.0,-100.00,WNW,301,3.0,6.0,52,0.00,,,0.00,766.000000,,2013-09-08 18:02:00,
2013-09-08 14:22:00,91.0,68.0,-100.00,SSW,206,3.0,6.0,47,0.00,,,0.00,701.000000,,2013-09-08 18:22:00,
2013-09-08 14:32:00,91.0,68.0,-100.00,SSW,206,3.0,6.0,47,0.00,,,0.00,701.000000,,2013-09-08 18:32:00,
2013-09-08 14:42:00,91.0,68.0,-100.00,SSW,206,3.0,6.0,47,0.00,,,0.00,701.000000,,2013-09-08 18:42:00,
2013-09-08 14:52:00,91.0,68.0,-100.00,SSW,206,3.0,6.0,47,0.00,,,0.00,701.000000,,2013-09-08 18:52:00,
2013-09-08 15:02:00,91.0,68.0,-100.00,SSW,206,3.0,6.0,47,0.00,,,0.00,701.000000,,2013-09-08 19:02:00,
2013-09-08 15:42:00,91.0,66.0,-100.00,NNW,328,3.0,6.0,44,0.00,,,0.00,750.000000,,2013-09-08 19:42:00,
2013-09-08 15:52:00,91.0,66.0,-100.00,NNW,328,3.0,6.0,44,0.00,,,0.00,750.000000,,2013-09-08 19:52:00,
2013-09-08 16:03:00,91.0,66.0,-100.00,NNW,328,3.0,6.0,44,0.00,,,0.00,750.000000,,2013-09-08 20:03:00,
2013-09-08 16:42:00,90.0,63.0,-100.00,NNE,28,2.0,6.0,41,0.00,,,0.00,721.000000,,2013-09-08 20:42:00,
2013-09-08 16:53:00,90.0,63.0,-100.00,NNE,28,2.0,6.0,41,0.00,,,0.00,721.000000,,2013-09-08 20:53:00,
2013-09-08 17:03:00,90.0,63.0,-100.00,NNE,28,2.0,6.0,41,0.00,,,0.00,721.000000,,2013-09-08 21:03:00,
2013-09-08 17:04:00,91.0,65.0,-100.00,ENE,77,3.0,5.0,42,0.00,,,0.00,659.000000,,2013-09-08 21:04:00,
2013-09-08 17:44:00,91.0,65.0,-100.00,ENE,77,3.0,5.0,42,0.00,,,0.00,659.000000,,2013-09-08 21:44:00,
2013-09-08 17:54:00,91.0,65.0,-100.00,ENE,77,3.0,5.0,42,0.00,,,0.00,659.000000,,2013-09-08 21:54:00,
2013-09-08 18:04:00,89.0,69.0,-100.00,ESE,123,3.0,6.0,52,0.00,,,0.00,426.000000,,2013-09-08 22:04:00,
2013-09-08 18:44:00,89.0,69.0,-100.00,ESE,123,3.0,6.0,52,0.00,,,0.00,426.000000,,2013-09-08 22:44:00,
2013-09-08 18:53:00,89.0,69.0,-100.00,ESE,123,3.0,6.0,52,0.00,,,0.00,426.000000,,2013-09-08 22:53:00,
2013-09-08 19:22:00,84.0,70.0,-100.00,ESE,119,2.0,6.0,63,0.00,,,0.00,179.000000,,2013-09-08 23:22:00,
2013-09-08 19:34:00,84.0,70.0,-100.00,ESE,119,2.0,6.0,63,0.00,,,0.00,179.000000,,2013-09-08 23:34:00,
2013-09-08 19:42:00,84.0,70.0,-100.00,ESE,119,2.0,6.0,63,0.00,,,0.00,179.000000,,2013-09-08 23:42:00,
2013-09-08 19:53:00,84.0,70.0,-100.00,ESE,119,2.0,6.0,63,0.00,,,0.00,179.000000,,2013-09-08 23:53:00,
2013-09-08 20:02:00,84.0,70.0,-100.00,ESE,119,2.0,6.0,63,0.00,,,0.00,179.000000,,2013-09-09 00:02:00,
2013-09-08 20:22:00,78.0,71.0,-100.00,SSW,200,0.0,3.0,79,0.00,,,0.00,11.000000,,2013-09-09 00:22:00,
2013-09-08 20:32:00,78.0,71.0,-100.00,SSW,200,0.0,3.0,79,0.00,,,0.00,11.000000,,2013-09-09 00:32:00,
2013-09-08 20:42:00,78.0,71.0,-100.00,SSW,200,0.0,3.0,79,0.00,,,0.00,11.000000,,2013-09-09 00:42:00,
2013-09-08 20:52:00,78.0,71.0,-100.00,SSW,200,0.0,3.0,79,0.00,,,0.00,11.000000,,2013-09-09 00:52:00,
2013-09-08 21:01:00,78.0,71.0,-100.00,SSW,200,0.0,3.0,79,0.00,,,0.00,11.000000,,2013-09-09 01:01:00,
2013-09-08 21:42:00,75.0,72.0,-100.00,SSW,192,0.0,1.0,89,0.00,,,0.00,0.000000,,2013-09-09 01:42:00,
2013-09-08 21:52:00,75.0,72.0,-100.00,SSW,192,0.0,1.0,89,0.00,,,0.00,0.000000,,2013-09-09 01:52:00,
2013-09-08 22:02:00,75.0,72.0,-100.00,SSW,192,0.0,1.0,89,0.00,,,0.00,0.000000,,2013-09-09 02:02:00,
2013-09-08 22:22:00,73.0,71.0,-100.00,SW,222,0.0,1.0,93,0.00,,,0.00,0.000000,,2013-09-09 02:22:00,
2013-09-08 22:32:00,73.0,71.0,-100.00,SW,222,0.0,1.0,93,0.00,,,0.00,0.000000,,2013-09-09 02:32:00,
2013-09-08 22:42:00,73.0,71.0,-100.00,SW,222,0.0,1.0,93,0.00,,,0.00,0.000000,,2013-09-09 02:42:00,
2013-09-08 22:53:00,73.0,71.0,-100.00,SW,222,0.0,1.0,93,0.00,,,0.00,0.000000,,2013-09-09 02:53:00,
2013-09-08 23:03:00,73.0,71.0,-100.00,SW,222,0.0,1.0,93,0.00,,,0.00,0.000000,,2013-09-09 03:03:00,
2013-09-08 23:04:00,72.0,71.0,-100.00,SW,234,0.0,0.0,96,0.00,,,0.00,0.000000,,2013-09-09 03:04:00,
2013-09-08 23:22:00,72.0,71.0,-100.00,SW,234,0.0,0.0,96,0.00,,,0.00,0.000000,,2013-09-09 03:22:00,
2013-09-08 23:34:00,72.0,71.0,-100.00,SW,234,0.0,0.0,96,0.00,,,0.00,0.000000,,2013-09-09 03:34:00,
2013-09-08 23:44:00,72.0,71.0,-100.00,SW,234,0.0,0.0,96,0.00,,,0.00,0.000000,,2013-09-09 03:44:00,
2013-09-08 23:55:00,72.0,71.0,-100.00,SW,234,0.0,0.0,96,0.00,,,0.00,0.000000,,2013-09-09 03:55:00,